sensor_id;sensor_type;location;lat;lon;timestamp;pressure;altitude;pressure_sealevel;temperature;humidity
54920;BME280;63804;53.120;8.764;2023-08-06T00:01:52;100806.41;;;16.52;77.90
54920;BME280;63804;53.120;8.764;2023-08-06T00:04:20;100801.91;;;16.53;77.91
54920;BME280;63804;53.120;8.764;2023-08-06T00:06:47;100815.47;;;16.60;77.69
54920;BME280;63804;53.120;8.764;2023-08-06T00:09:14;100810.13;;;16.60;77.69
54920;BME280;63804;53.120;8.764;2023-08-06T00:11:42;100811.69;;;16.62;77.74
54920;BME280;63804;53.120;8.764;2023-08-06T00:14:11;100809.25;;;16.69;77.33
54920;BME280;63804;53.120;8.764;2023-08-06T00:16:38;100815.59;;;16.68;77.62
54920;BME280;63804;53.120;8.764;2023-08-06T00:19:05;100804.78;;;16.60;77.75
54920;BME280;63804;53.120;8.764;2023-08-06T00:21:33;100811.84;;;16.61;77.79
54920;BME280;63804;53.120;8.764;2023-08-06T00:24:00;100799.31;;;16.61;77.72
54920;BME280;63804;53.120;8.764;2023-08-06T00:26:28;100810.53;;;16.65;77.88
54920;BME280;63804;53.120;8.764;2023-08-06T00:28:55;100806.19;;;16.64;77.74
54920;BME280;63804;53.120;8.764;2023-08-06T00:31:22;100798.00;;;16.65;77.85
54920;BME280;63804;53.120;8.764;2023-08-06T00:33:50;100803.06;;;16.68;77.67
54920;BME280;63804;53.120;8.764;2023-08-06T00:36:17;100803.34;;;16.65;77.69
54920;BME280;63804;53.120;8.764;2023-08-06T00:38:44;100805.88;;;16.67;77.45
54920;BME280;63804;53.120;8.764;2023-08-06T00:41:12;100805.44;;;16.71;77.33
54920;BME280;63804;53.120;8.764;2023-08-06T00:43:39;100799.09;;;16.72;77.84
54920;BME280;63804;53.120;8.764;2023-08-06T00:46:06;100802.78;;;16.71;77.57
54920;BME280;63804;53.120;8.764;2023-08-06T00:48:34;100805.84;;;16.76;77.50
54920;BME280;63804;53.120;8.764;2023-08-06T00:51:01;100803.47;;;16.73;77.43
54920;BME280;63804;53.120;8.764;2023-08-06T00:53:29;100790.53;;;16.69;77.37
54920;BME280;63804;53.120;8.764;2023-08-06T00:55:57;100785.72;;;16.72;77.49
54920;BME280;63804;53.120;8.764;2023-08-06T00:58:25;100782.34;;;16.70;77.43
54920;BME280;63804;53.120;8.764;2023-08-06T01:00:53;100784.34;;;16.68;77.42
54920;BME280;63804;53.120;8.764;2023-08-06T01:03:20;100779.84;;;16.69;77.80
54920;BME280;63804;53.120;8.764;2023-08-06T01:05:48;100784.19;;;16.70;77.30
54920;BME280;63804;53.120;8.764;2023-08-06T01:13:41;100771.56;;;16.62;77.91
54920;BME280;63804;53.120;8.764;2023-08-06T01:16:09;100759.19;;;16.61;77.61
54920;BME280;63804;53.120;8.764;2023-08-06T01:18:38;100752.84;;;16.62;77.64
54920;BME280;63804;53.120;8.764;2023-08-06T01:21:07;100749.34;;;16.62;77.69
54920;BME280;63804;53.120;8.764;2023-08-06T01:23:34;100753.25;;;16.49;78.12
54920;BME280;63804;53.120;8.764;2023-08-06T01:26:08;100756.81;;;16.58;77.95
54920;BME280;63804;53.120;8.764;2023-08-06T01:28:54;100757.53;;;16.60;78.07
54920;BME280;63804;53.120;8.764;2023-08-06T01:31:34;100745.53;;;16.64;77.97
54920;BME280;63804;53.120;8.764;2023-08-06T01:34:04;100746.97;;;16.58;78.01
54920;BME280;63804;53.120;8.764;2023-08-06T01:36:33;100742.69;;;16.48;77.60
54920;BME280;63804;53.120;8.764;2023-08-06T01:39:01;100748.44;;;16.53;78.27
54920;BME280;63804;53.120;8.764;2023-08-06T01:41:28;100742.63;;;16.57;78.31
54920;BME280;63804;53.120;8.764;2023-08-06T01:43:55;100737.50;;;16.64;77.81
54920;BME280;63804;53.120;8.764;2023-08-06T01:46:23;100744.00;;;16.62;77.98
54920;BME280;63804;53.120;8.764;2023-08-06T01:48:50;100739.72;;;16.51;78.64
54920;BME280;63804;53.120;8.764;2023-08-06T01:51:18;100746.09;;;16.40;78.85
54920;BME280;63804;53.120;8.764;2023-08-06T01:53:45;100743.31;;;16.42;78.82
54920;BME280;63804;53.120;8.764;2023-08-06T01:56:12;100737.88;;;16.51;78.84
54920;BME280;63804;53.120;8.764;2023-08-06T01:58:40;100740.25;;;16.54;78.49
54920;BME280;63804;53.120;8.764;2023-08-06T02:01:07;100733.16;;;16.45;78.86
54920;BME280;63804;53.120;8.764;2023-08-06T02:03:34;100731.31;;;16.46;79.09
54920;BME280;63804;53.120;8.764;2023-08-06T02:06:02;100726.22;;;16.52;78.86
54920;BME280;63804;53.120;8.764;2023-08-06T02:08:29;100726.34;;;16.51;79.14
54920;BME280;63804;53.120;8.764;2023-08-06T02:10:56;100719.16;;;16.51;79.01
54920;BME280;63804;53.120;8.764;2023-08-06T02:13:25;100725.50;;;16.50;78.91
54920;BME280;63804;53.120;8.764;2023-08-06T02:15:52;100734.75;;;16.56;78.53
54920;BME280;63804;53.120;8.764;2023-08-06T02:18:20;100726.81;;;16.46;78.73
54920;BME280;63804;53.120;8.764;2023-08-06T02:20:57;100732.09;;;16.56;78.35
54920;BME280;63804;53.120;8.764;2023-08-06T02:23:26;100728.34;;;16.49;78.75
54920;BME280;63804;53.120;8.764;2023-08-06T02:26:01;100720.16;;;16.50;79.02
54920;BME280;63804;53.120;8.764;2023-08-06T02:28:31;100719.25;;;16.42;79.22
54920;BME280;63804;53.120;8.764;2023-08-06T02:30:59;100717.53;;;16.41;79.28
54920;BME280;63804;53.120;8.764;2023-08-06T02:33:27;100719.38;;;16.40;79.46
54920;BME280;63804;53.120;8.764;2023-08-06T02:36:03;100716.09;;;16.46;79.37
54920;BME280;63804;53.120;8.764;2023-08-06T02:38:32;100717.25;;;16.44;79.02
54920;BME280;63804;53.120;8.764;2023-08-06T02:41:02;100718.19;;;16.52;78.84
54920;BME280;63804;53.120;8.764;2023-08-06T02:43:31;100711.47;;;16.48;78.89
54920;BME280;63804;53.120;8.764;2023-08-06T02:45:59;100710.28;;;16.51;79.05
54920;BME280;63804;53.120;8.764;2023-08-06T02:48:28;100708.63;;;16.50;78.76
54920;BME280;63804;53.120;8.764;2023-08-06T02:50:58;100701.06;;;16.45;78.75
54920;BME280;63804;53.120;8.764;2023-08-06T02:53:27;100716.03;;;16.38;78.98
54920;BME280;63804;53.120;8.764;2023-08-06T02:55:54;100706.47;;;16.36;79.18
54920;BME280;63804;53.120;8.764;2023-08-06T02:58:22;100707.56;;;16.43;78.80
54920;BME280;63804;53.120;8.764;2023-08-06T03:01:00;100700.22;;;16.45;78.66
54920;BME280;63804;53.120;8.764;2023-08-06T03:03:30;100689.91;;;16.32;79.37
54920;BME280;63804;53.120;8.764;2023-08-06T03:05:57;100686.97;;;16.25;79.55
54920;BME280;63804;53.120;8.764;2023-08-06T03:08:25;100679.38;;;16.30;79.58
54920;BME280;63804;53.120;8.764;2023-08-06T03:10:52;100686.75;;;16.37;79.05
54920;BME280;63804;53.120;8.764;2023-08-06T03:13:20;100678.91;;;16.35;79.23
54920;BME280;63804;53.120;8.764;2023-08-06T03:15:58;100683.88;;;16.30;79.27
54920;BME280;63804;53.120;8.764;2023-08-06T03:18:26;100676.63;;;16.22;79.38
54920;BME280;63804;53.120;8.764;2023-08-06T03:20:54;100675.78;;;16.22;79.61
54920;BME280;63804;53.120;8.764;2023-08-06T03:23:21;100668.06;;;16.19;79.42
54920;BME280;63804;53.120;8.764;2023-08-06T03:25:48;100677.84;;;16.28;79.29
54920;BME280;63804;53.120;8.764;2023-08-06T03:28:16;100675.13;;;16.10;79.29
54920;BME280;63804;53.120;8.764;2023-08-06T03:30:43;100665.53;;;15.99;79.92
54920;BME280;63804;53.120;8.764;2023-08-06T03:33:11;100665.84;;;16.14;79.33
54920;BME280;63804;53.120;8.764;2023-08-06T03:35:38;100659.34;;;16.17;79.30
54920;BME280;63804;53.120;8.764;2023-08-06T03:38:05;100657.59;;;16.07;79.45
54920;BME280;63804;53.120;8.764;2023-08-06T03:40:35;100647.75;;;16.08;79.18
54920;BME280;63804;53.120;8.764;2023-08-06T03:43:03;100653.56;;;16.03;79.49
54920;BME280;63804;53.120;8.764;2023-08-06T03:45:30;100646.06;;;16.07;79.71
54920;BME280;63804;53.120;8.764;2023-08-06T03:47:57;100650.25;;;16.09;79.49
54920;BME280;63804;53.120;8.764;2023-08-06T03:50:25;100641.41;;;16.09;79.40
54920;BME280;63804;53.120;8.764;2023-08-06T03:52:52;100637.44;;;16.13;79.55
54920;BME280;63804;53.120;8.764;2023-08-06T03:55:20;100632.94;;;16.14;79.82
54920;BME280;63804;53.120;8.764;2023-08-06T03:57:47;100636.84;;;16.19;79.45
54920;BME280;63804;53.120;8.764;2023-08-06T04:00:15;100636.84;;;16.19;79.79
54920;BME280;63804;53.120;8.764;2023-08-06T04:02:42;100635.16;;;16.18;79.68
54920;BME280;63804;53.120;8.764;2023-08-06T04:05:10;100634.47;;;16.16;79.67
54920;BME280;63804;53.120;8.764;2023-08-06T04:07:37;100630.13;;;16.15;79.81
54920;BME280;63804;53.120;8.764;2023-08-06T04:10:05;100634.84;;;16.21;79.67
54920;BME280;63804;53.120;8.764;2023-08-06T04:12:32;100631.19;;;16.22;79.85
54920;BME280;63804;53.120;8.764;2023-08-06T04:15:03;100638.22;;;16.23;79.79
54920;BME280;63804;53.120;8.764;2023-08-06T04:17:31;100635.53;;;16.23;79.65
54920;BME280;63804;53.120;8.764;2023-08-06T04:19:58;100641.41;;;16.27;79.44
54920;BME280;63804;53.120;8.764;2023-08-06T04:22:26;100647.97;;;16.32;79.36
54920;BME280;63804;53.120;8.764;2023-08-06T04:24:53;100643.34;;;16.35;79.54
54920;BME280;63804;53.120;8.764;2023-08-06T04:27:21;100638.28;;;16.31;79.24
54920;BME280;63804;53.120;8.764;2023-08-06T04:29:48;100634.06;;;16.29;79.52
54920;BME280;63804;53.120;8.764;2023-08-06T04:32:15;100634.94;;;16.29;79.36
54920;BME280;63804;53.120;8.764;2023-08-06T04:34:43;100633.53;;;16.25;79.56
54920;BME280;63804;53.120;8.764;2023-08-06T04:37:10;100635.00;;;16.20;79.47
54920;BME280;63804;53.120;8.764;2023-08-06T04:39:37;100639.22;;;16.22;79.71
54920;BME280;63804;53.120;8.764;2023-08-06T04:42:05;100642.25;;;16.27;79.58
54920;BME280;63804;53.120;8.764;2023-08-06T04:44:33;100639.97;;;16.32;79.33
54920;BME280;63804;53.120;8.764;2023-08-06T04:47:00;100642.44;;;16.26;79.46
54920;BME280;63804;53.120;8.764;2023-08-06T04:49:27;100647.91;;;16.24;79.43
54920;BME280;63804;53.120;8.764;2023-08-06T04:51:55;100644.84;;;16.19;80.45
54920;BME280;63804;53.120;8.764;2023-08-06T04:54:22;100641.97;;;16.30;79.70
54920;BME280;63804;53.120;8.764;2023-08-06T04:56:49;100639.66;;;16.36;79.73
54920;BME280;63804;53.120;8.764;2023-08-06T04:59:17;100634.47;;;16.34;79.78
54920;BME280;63804;53.120;8.764;2023-08-06T05:01:44;100645.84;;;16.36;79.48
54920;BME280;63804;53.120;8.764;2023-08-06T05:04:11;100642.88;;;16.39;79.34
54920;BME280;63804;53.120;8.764;2023-08-06T05:06:39;100638.00;;;16.35;79.23
54920;BME280;63804;53.120;8.764;2023-08-06T05:09:07;100637.16;;;16.34;79.42
54920;BME280;63804;53.120;8.764;2023-08-06T05:11:35;100642.31;;;16.36;79.42
54920;BME280;63804;53.120;8.764;2023-08-06T05:14:02;100650.22;;;16.37;79.56
54920;BME280;63804;53.120;8.764;2023-08-06T05:16:29;100651.59;;;16.41;79.74
54920;BME280;63804;53.120;8.764;2023-08-06T05:18:56;100652.66;;;16.48;79.41
54920;BME280;63804;53.120;8.764;2023-08-06T05:21:24;100645.78;;;16.46;79.35
54920;BME280;63804;53.120;8.764;2023-08-06T05:23:51;100646.59;;;16.46;79.31
54920;BME280;63804;53.120;8.764;2023-08-06T05:26:19;100646.59;;;16.46;79.42
54920;BME280;63804;53.120;8.764;2023-08-06T05:28:46;100649.28;;;16.46;79.58
54920;BME280;63804;53.120;8.764;2023-08-06T05:31:14;100654.63;;;16.46;79.54
54920;BME280;63804;53.120;8.764;2023-08-06T05:33:41;100657.28;;;16.46;79.33
54920;BME280;63804;53.120;8.764;2023-08-06T05:36:09;100647.31;;;16.48;79.40
54920;BME280;63804;53.120;8.764;2023-08-06T05:38:36;100649.50;;;16.53;79.59
54920;BME280;63804;53.120;8.764;2023-08-06T05:41:03;100647.97;;;16.50;79.64
54920;BME280;63804;53.120;8.764;2023-08-06T05:43:31;100650.56;;;16.60;79.07
54920;BME280;63804;53.120;8.764;2023-08-06T05:45:58;100649.94;;;16.66;78.80
54920;BME280;63804;53.120;8.764;2023-08-06T05:48:25;100649.41;;;16.63;78.92
54920;BME280;63804;53.120;8.764;2023-08-06T05:50:55;100656.22;;;16.57;79.38
54920;BME280;63804;53.120;8.764;2023-08-06T05:53:22;100654.75;;;16.63;79.10
54920;BME280;63804;53.120;8.764;2023-08-06T05:55:50;100651.31;;;16.70;78.77
54920;BME280;63804;53.120;8.764;2023-08-06T05:58:17;100652.25;;;16.79;78.53
54920;BME280;63804;53.120;8.764;2023-08-06T06:00:47;100652.69;;;16.74;78.71
54920;BME280;63804;53.120;8.764;2023-08-06T06:03:14;100652.69;;;16.74;78.67
54920;BME280;63804;53.120;8.764;2023-08-06T06:05:41;100650.88;;;16.75;78.97
54920;BME280;63804;53.120;8.764;2023-08-06T06:08:09;100647.66;;;16.71;78.78
54920;BME280;63804;53.120;8.764;2023-08-06T06:10:36;100638.09;;;16.69;78.75
54920;BME280;63804;53.120;8.764;2023-08-06T06:13:03;100638.78;;;16.71;78.40
54920;BME280;63804;53.120;8.764;2023-08-06T06:15:33;100643.38;;;16.78;78.48
54920;BME280;63804;53.120;8.764;2023-08-06T06:18:03;100639.56;;;16.81;78.45
54920;BME280;63804;53.120;8.764;2023-08-06T06:20:54;100644.81;;;16.73;78.62
54920;BME280;63804;53.120;8.764;2023-08-06T06:23:21;100647.41;;;16.83;78.98
54920;BME280;63804;53.120;8.764;2023-08-06T06:25:49;100646.03;;;16.78;78.74
54920;BME280;63804;53.120;8.764;2023-08-06T06:28:20;100648.59;;;16.80;78.77
54920;BME280;63804;53.120;8.764;2023-08-06T06:30:47;100653.09;;;16.79;78.34
54920;BME280;63804;53.120;8.764;2023-08-06T06:33:15;100648.09;;;16.85;78.55
54920;BME280;63804;53.120;8.764;2023-08-06T06:35:42;100642.81;;;16.93;78.01
54920;BME280;63804;53.120;8.764;2023-08-06T06:38:10;100645.19;;;16.96;78.50
54920;BME280;63804;53.120;8.764;2023-08-06T06:40:37;100660.91;;;16.99;78.33
54920;BME280;63804;53.120;8.764;2023-08-06T06:43:04;100657.41;;;16.98;78.17
54920;BME280;63804;53.120;8.764;2023-08-06T06:45:32;100653.09;;;17.05;78.15
54920;BME280;63804;53.120;8.764;2023-08-06T06:47:59;100650.78;;;17.11;78.09
54920;BME280;63804;53.120;8.764;2023-08-06T06:50:27;100660.00;;;17.16;77.55
54920;BME280;63804;53.120;8.764;2023-08-06T06:52:57;100658.56;;;17.22;77.46
54920;BME280;63804;53.120;8.764;2023-08-06T06:55:24;100656.72;;;17.22;77.51
54920;BME280;63804;53.120;8.764;2023-08-06T06:57:52;100660.91;;;17.25;77.43
54920;BME280;63804;53.120;8.764;2023-08-06T07:00:19;100666.28;;;17.25;77.77
54920;BME280;63804;53.120;8.764;2023-08-06T07:02:46;100665.06;;;17.19;77.81
54920;BME280;63804;53.120;8.764;2023-08-06T07:05:14;100672.25;;;17.19;77.60
54920;BME280;63804;53.120;8.764;2023-08-06T07:07:41;100665.28;;;17.26;77.61
54920;BME280;63804;53.120;8.764;2023-08-06T07:10:09;100667.47;;;17.30;77.23
54920;BME280;63804;53.120;8.764;2023-08-06T07:12:37;100658.59;;;17.30;76.92
54920;BME280;63804;53.120;8.764;2023-08-06T07:15:07;100662.16;;;17.39;77.09
54920;BME280;63804;53.120;8.764;2023-08-06T07:17:34;100662.16;;;17.39;77.17
54920;BME280;63804;53.120;8.764;2023-08-06T07:20:02;100668.50;;;17.38;77.03
54920;BME280;63804;53.120;8.764;2023-08-06T07:22:30;100667.72;;;17.45;76.23
54920;BME280;63804;53.120;8.764;2023-08-06T07:24:57;100670.03;;;17.40;76.66
54920;BME280;63804;53.120;8.764;2023-08-06T07:27:25;100674.09;;;17.52;77.14
54920;BME280;63804;53.120;8.764;2023-08-06T07:29:52;100674.09;;;17.52;76.67
54920;BME280;63804;53.120;8.764;2023-08-06T07:32:20;100674.72;;;17.46;76.72
54920;BME280;63804;53.120;8.764;2023-08-06T07:34:47;100656.97;;;17.37;77.28
54920;BME280;63804;53.120;8.764;2023-08-06T07:37:14;100667.03;;;17.43;76.99
54920;BME280;63804;53.120;8.764;2023-08-06T07:39:42;100669.16;;;17.40;76.46
54920;BME280;63804;53.120;8.764;2023-08-06T07:42:10;100664.31;;;17.35;76.75
54920;BME280;63804;53.120;8.764;2023-08-06T07:44:37;100671.25;;;17.54;76.18
54920;BME280;63804;53.120;8.764;2023-08-06T07:47:07;100658.03;;;17.52;76.03
54920;BME280;63804;53.120;8.764;2023-08-06T07:49:34;100665.25;;;17.52;76.11
54920;BME280;63804;53.120;8.764;2023-08-06T07:52:01;100659.91;;;17.60;75.79
54920;BME280;63804;53.120;8.764;2023-08-06T07:54:29;100665.34;;;17.76;75.07
54920;BME280;63804;53.120;8.764;2023-08-06T07:56:57;100664.34;;;17.77;75.04
54920;BME280;63804;53.120;8.764;2023-08-06T07:59:24;100663.22;;;17.88;75.15
54920;BME280;63804;53.120;8.764;2023-08-06T08:01:51;100660.75;;;18.03;74.62
54920;BME280;63804;53.120;8.764;2023-08-06T08:04:19;100656.75;;;18.15;73.89
54920;BME280;63804;53.120;8.764;2023-08-06T08:06:49;100656.22;;;17.95;73.83
54920;BME280;63804;53.120;8.764;2023-08-06T08:09:16;100658.16;;;17.77;74.17
54920;BME280;63804;53.120;8.764;2023-08-06T08:11:43;100659.69;;;17.80;74.36
54920;BME280;63804;53.120;8.764;2023-08-06T08:14:11;100653.00;;;17.92;74.69
54920;BME280;63804;53.120;8.764;2023-08-06T08:16:38;100648.19;;;18.03;74.20
54920;BME280;63804;53.120;8.764;2023-08-06T08:19:05;100650.03;;;18.03;74.79
54920;BME280;63804;53.120;8.764;2023-08-06T08:21:33;100649.03;;;18.04;74.18
54920;BME280;63804;53.120;8.764;2023-08-06T08:24:01;100644.34;;;18.06;73.81
54920;BME280;63804;53.120;8.764;2023-08-06T08:26:28;100646.53;;;18.19;73.01
54920;BME280;63804;53.120;8.764;2023-08-06T08:28:56;100637.53;;;18.28;73.03
54920;BME280;63804;53.120;8.764;2023-08-06T08:31:24;100642.06;;;18.36;73.26
54920;BME280;63804;53.120;8.764;2023-08-06T08:33:51;100640.19;;;18.52;72.84
54920;BME280;63804;53.120;8.764;2023-08-06T08:36:21;100636.34;;;18.63;72.92
54920;BME280;63804;53.120;8.764;2023-08-06T08:38:48;100634.16;;;18.67;73.16
54920;BME280;63804;53.120;8.764;2023-08-06T08:41:17;100636.69;;;18.52;73.45
54920;BME280;63804;53.120;8.764;2023-08-06T08:43:44;100625.47;;;18.40;73.71
54920;BME280;63804;53.120;8.764;2023-08-06T08:46:12;100628.66;;;18.36;73.77
54920;BME280;63804;53.120;8.764;2023-08-06T08:48:41;100624.94;;;18.37;73.82
54920;BME280;63804;53.120;8.764;2023-08-06T08:51:08;100626.94;;;18.26;74.02
54920;BME280;63804;53.120;8.764;2023-08-06T08:53:36;100629.47;;;18.28;74.13
54920;BME280;63804;53.120;8.764;2023-08-06T08:56:06;100620.94;;;18.33;74.27
54920;BME280;63804;53.120;8.764;2023-08-06T08:58:33;100623.44;;;18.34;73.95
54920;BME280;63804;53.120;8.764;2023-08-06T09:01:01;100622.28;;;18.29;74.60
54920;BME280;63804;53.120;8.764;2023-08-06T09:03:29;100626.63;;;18.30;74.97
54920;BME280;63804;53.120;8.764;2023-08-06T09:05:58;100623.25;;;18.27;74.94
54920;BME280;63804;53.120;8.764;2023-08-06T09:08:33;100618.06;;;18.34;74.06
54920;BME280;63804;53.120;8.764;2023-08-06T09:11:02;100614.03;;;18.38;74.35
54920;BME280;63804;53.120;8.764;2023-08-06T09:13:30;100615.56;;;18.49;74.06
54920;BME280;63804;53.120;8.764;2023-08-06T09:15:57;100606.34;;;18.51;73.59
54920;BME280;63804;53.120;8.764;2023-08-06T09:18:26;100602.16;;;18.49;73.94
54920;BME280;63804;53.120;8.764;2023-08-06T09:20:55;100615.06;;;18.54;73.77
54920;BME280;63804;53.120;8.764;2023-08-06T09:23:31;100608.19;;;18.59;73.35
54920;BME280;63804;53.120;8.764;2023-08-06T09:25:59;100620.28;;;18.55;73.62
54920;BME280;63804;53.120;8.764;2023-08-06T09:28:37;100611.03;;;18.58;72.76
54920;BME280;63804;53.120;8.764;2023-08-06T09:31:09;100618.91;;;18.59;73.04
54920;BME280;63804;53.120;8.764;2023-08-06T09:33:37;100613.88;;;18.56;73.55
54920;BME280;63804;53.120;8.764;2023-08-06T09:36:12;100612.38;;;18.62;73.77
54920;BME280;63804;53.120;8.764;2023-08-06T09:38:40;100613.56;;;18.59;74.32
54920;BME280;63804;53.120;8.764;2023-08-06T09:41:07;100612.38;;;18.62;74.43
54920;BME280;63804;53.120;8.764;2023-08-06T09:43:44;100609.53;;;18.63;74.54
54920;BME280;63804;53.120;8.764;2023-08-06T09:46:13;100609.03;;;18.60;74.51
54920;BME280;63804;53.120;8.764;2023-08-06T09:48:45;100606.50;;;18.58;74.96
54920;BME280;63804;53.120;8.764;2023-08-06T09:51:13;100617.72;;;18.62;73.85
54920;BME280;63804;53.120;8.764;2023-08-06T09:53:40;100608.69;;;18.63;73.23
54920;BME280;63804;53.120;8.764;2023-08-06T09:56:10;100604.31;;;18.62;72.75
54920;BME280;63804;53.120;8.764;2023-08-06T09:58:38;100605.84;;;18.56;72.85
54920;BME280;63804;53.120;8.764;2023-08-06T10:01:06;100595.75;;;18.58;72.50
54920;BME280;63804;53.120;8.764;2023-08-06T10:03:34;100607.00;;;18.62;72.38
54920;BME280;63804;53.120;8.764;2023-08-06T10:06:03;100606.16;;;18.69;72.33
54920;BME280;63804;53.120;8.764;2023-08-06T10:08:34;100600.47;;;18.72;72.81
54920;BME280;63804;53.120;8.764;2023-08-06T10:11:02;100598.97;;;18.78;72.77
54920;BME280;63804;53.120;8.764;2023-08-06T10:13:32;100601.16;;;18.83;71.63
54920;BME280;63804;53.120;8.764;2023-08-06T10:16:02;100597.59;;;18.98;71.31
54920;BME280;63804;53.120;8.764;2023-08-06T10:21:14;100602.38;;;19.28;70.90
54920;BME280;63804;53.120;8.764;2023-08-06T10:23:43;100597.28;;;19.41;69.81
54920;BME280;63804;53.120;8.764;2023-08-06T10:26:10;100595.19;;;19.59;69.41
54920;BME280;63804;53.120;8.764;2023-08-06T10:36:15;100574.84;;;19.65;68.38
54920;BME280;63804;53.120;8.764;2023-08-06T10:38:47;100599.19;;;19.94;68.42
54920;BME280;63804;53.120;8.764;2023-08-06T10:41:23;100594.59;;;20.03;68.09
54920;BME280;63804;53.120;8.764;2023-08-06T10:44:12;100592.38;;;20.07;68.88
54920;BME280;63804;53.120;8.764;2023-08-06T10:46:39;100589.53;;;20.08;69.26
54920;BME280;63804;53.120;8.764;2023-08-06T10:56:16;100577.63;;;20.03;68.48
54920;BME280;63804;53.120;8.764;2023-08-06T10:58:45;100565.50;;;20.07;68.21
54920;BME280;63804;53.120;8.764;2023-08-06T11:01:13;100576.38;;;20.13;68.11
54920;BME280;63804;53.120;8.764;2023-08-06T11:03:45;100573.41;;;20.08;66.52
54920;BME280;63804;53.120;8.764;2023-08-06T11:06:18;100575.75;;;20.11;65.17
54920;BME280;63804;53.120;8.764;2023-08-06T11:08:48;100583.91;;;20.18;65.85
54920;BME280;63804;53.120;8.764;2023-08-06T11:11:17;100580.22;;;20.19;65.05
54920;BME280;63804;53.120;8.764;2023-08-06T11:13:49;100570.28;;;20.19;64.39
54920;BME280;63804;53.120;8.764;2023-08-06T11:16:18;100572.44;;;20.24;64.02
54920;BME280;63804;53.120;8.764;2023-08-06T11:18:46;100564.66;;;20.29;63.49
54920;BME280;63804;53.120;8.764;2023-08-06T11:21:18;100561.59;;;20.32;63.61
54920;BME280;63804;53.120;8.764;2023-08-06T11:23:46;100561.81;;;20.31;64.23
54920;BME280;63804;53.120;8.764;2023-08-06T11:26:21;100560.09;;;20.30;62.46
54920;BME280;63804;53.120;8.764;2023-08-06T11:28:51;100562.78;;;20.15;62.16
54920;BME280;63804;53.120;8.764;2023-08-06T11:31:20;100568.91;;;20.24;62.21
54920;BME280;63804;53.120;8.764;2023-08-06T11:33:49;100564.13;;;20.34;62.14
54920;BME280;63804;53.120;8.764;2023-08-06T11:36:34;100566.56;;;20.43;61.73
54920;BME280;63804;53.120;8.764;2023-08-06T11:39:03;100566.91;;;20.40;61.14
54920;BME280;63804;53.120;8.764;2023-08-06T11:41:33;100556.41;;;20.54;60.92
54920;BME280;63804;53.120;8.764;2023-08-06T11:44:01;100556.72;;;20.74;59.84
54920;BME280;63804;53.120;8.764;2023-08-06T11:46:28;100545.84;;;20.97;59.19
54920;BME280;63804;53.120;8.764;2023-08-06T11:48:57;100541.66;;;21.09;58.85
54920;BME280;63804;53.120;8.764;2023-08-06T11:51:25;100538.59;;;21.27;59.38
54920;BME280;63804;53.120;8.764;2023-08-06T11:53:59;100536.34;;;21.30;59.00
54920;BME280;63804;53.120;8.764;2023-08-06T11:56:27;100540.47;;;21.26;58.81
54920;BME280;63804;53.120;8.764;2023-08-06T11:58:55;100538.50;;;21.35;59.08
54920;BME280;63804;53.120;8.764;2023-08-06T12:01:23;100539.34;;;21.21;59.76
54920;BME280;63804;53.120;8.764;2023-08-06T12:03:50;100542.84;;;21.21;59.20
54920;BME280;63804;53.120;8.764;2023-08-06T12:06:18;100533.56;;;21.24;58.72
54920;BME280;63804;53.120;8.764;2023-08-06T12:08:45;100530.97;;;21.30;58.72
54920;BME280;63804;53.120;8.764;2023-08-06T12:11:12;100528.66;;;21.27;58.94
54920;BME280;63804;53.120;8.764;2023-08-06T12:13:40;100527.16;;;21.25;58.84
54920;BME280;63804;53.120;8.764;2023-08-06T12:16:07;100531.94;;;21.08;59.34
54920;BME280;63804;53.120;8.764;2023-08-06T12:18:34;100534.16;;;21.04;58.45
54920;BME280;63804;53.120;8.764;2023-08-06T12:21:02;100527.13;;;21.03;58.60
54920;BME280;63804;53.120;8.764;2023-08-06T12:23:29;100527.13;;;21.03;58.74
54920;BME280;63804;53.120;8.764;2023-08-06T12:25:56;100521.88;;;21.16;58.73
54920;BME280;63804;53.120;8.764;2023-08-06T12:28:25;100513.06;;;21.23;58.53
54920;BME280;63804;53.120;8.764;2023-08-06T12:30:52;100526.31;;;21.24;58.47
54920;BME280;63804;53.120;8.764;2023-08-06T12:33:22;100517.78;;;21.21;58.72
54920;BME280;63804;53.120;8.764;2023-08-06T12:35:49;100515.47;;;21.17;58.49
54920;BME280;63804;53.120;8.764;2023-08-06T12:38:17;100510.75;;;21.20;58.88
54920;BME280;63804;53.120;8.764;2023-08-06T12:40:44;100511.41;;;21.22;59.26
54920;BME280;63804;53.120;8.764;2023-08-06T12:43:11;100521.97;;;21.23;59.46
54920;BME280;63804;53.120;8.764;2023-08-06T12:45:39;100515.09;;;21.21;60.01
54920;BME280;63804;53.120;8.764;2023-08-06T12:48:06;100527.63;;;21.13;60.85
54920;BME280;63804;53.120;8.764;2023-08-06T12:50:33;100518.19;;;21.03;60.90
54920;BME280;63804;53.120;8.764;2023-08-06T12:53:01;100524.69;;;20.93;61.70
54920;BME280;63804;53.120;8.764;2023-08-06T12:55:29;100524.41;;;20.88;61.57
54920;BME280;63804;53.120;8.764;2023-08-06T12:57:59;100527.75;;;20.90;61.59
54920;BME280;63804;53.120;8.764;2023-08-06T13:00:27;100522.19;;;20.92;61.73
54920;BME280;63804;53.120;8.764;2023-08-06T13:02:54;100519.41;;;21.00;62.04
54920;BME280;63804;53.120;8.764;2023-08-06T13:05:22;100522.00;;;21.08;61.37
54920;BME280;63804;53.120;8.764;2023-08-06T13:07:49;100525.59;;;21.15;61.37
54920;BME280;63804;53.120;8.764;2023-08-06T13:10:17;100519.66;;;21.35;60.62
54920;BME280;63804;53.120;8.764;2023-08-06T13:12:45;100520.78;;;21.62;59.78
54920;BME280;63804;53.120;8.764;2023-08-06T13:15:12;100522.47;;;21.84;59.15
54920;BME280;63804;53.120;8.764;2023-08-06T13:17:41;100524.59;;;21.89;58.49
54920;BME280;63804;53.120;8.764;2023-08-06T13:20:09;100524.44;;;21.97;58.57